createdAt,value
2019-05-20T00:00:37.607Z,40.30
2019-05-20T00:03:08.654Z,35.70
2019-05-20T00:05:40.681Z,47.00
2019-05-20T00:08:10.155Z,44.65
2019-05-20T00:10:41.028Z,35.50
2019-05-20T00:13:10.461Z,48.65
2019-05-20T00:15:38.881Z,45.33
2019-05-20T00:18:11.147Z,47.10
2019-05-20T00:20:39.554Z,48.28
2019-05-20T00:23:08.968Z,49.00
2019-05-20T00:25:37.399Z,45.50
2019-05-20T00:28:05.825Z,49.50
2019-05-20T00:30:36.414Z,50.75
2019-05-20T00:33:09.721Z,50.20
2019-05-20T00:35:36.950Z,42.67
2019-05-20T00:38:05.400Z,42.65
2019-05-20T00:40:33.812Z,59.15
2019-05-20T00:43:06.947Z,50.83
2019-05-20T00:45:37.882Z,49.43
2019-05-20T00:48:16.794Z,52.23
2019-05-20T00:50:46.198Z,50.28
2019-05-20T00:53:14.632Z,56.75
2019-05-20T00:55:43.047Z,46.18
2019-05-20T00:58:12.523Z,49.60
2019-05-20T01:00:41.019Z,50.43
2019-05-20T01:03:09.430Z,52.05
2019-05-20T01:05:37.851Z,46.20
2019-05-20T01:08:06.359Z,58.98
2019-05-20T01:10:34.779Z,55.65
2019-05-20T01:13:09.370Z,46.37
2019-05-20T01:15:43.819Z,44.13
2019-05-20T01:18:12.231Z,46.77
2019-05-20T01:20:40.654Z,47.60
2019-05-20T01:23:09.059Z,46.45
2019-05-20T01:25:37.486Z,49.42
2019-05-20T01:28:06.144Z,44.93
2019-05-20T01:30:34.565Z,49.75
2019-05-20T01:33:13.854Z,48.60
2019-05-20T01:35:36.895Z,50.90
2019-05-20T01:38:08.840Z,54.40
2019-05-20T01:40:41.288Z,60.45
2019-05-20T01:45:39.431Z,41.08
2019-05-20T01:48:07.857Z,35.63
2019-05-20T01:50:40.137Z,42.13
2019-05-20T01:53:08.556Z,38.38
2019-05-20T01:55:41.329Z,50.05
2019-05-20T01:58:12.701Z,46.80
2019-05-20T02:00:41.225Z,42.98
2019-05-20T02:03:12.247Z,69.30
2019-05-20T02:05:40.663Z,57.33
2019-05-20T02:08:09.094Z,44.13
2019-05-20T02:10:40.169Z,39.90
2019-05-20T02:13:12.570Z,35.58
2019-05-20T02:15:42.628Z,43.52
2019-05-20T02:18:13.225Z,44.33
2019-05-20T02:20:42.640Z,38.70
2019-05-20T02:23:14.903Z,75.95
2019-05-20T02:25:46.889Z,43.02
2019-05-20T02:28:21.918Z,35.83
2019-05-20T02:30:50.310Z,63.20
2019-05-20T02:33:18.749Z,39.67
2019-05-20T02:35:48.233Z,40.55
2019-05-20T02:38:22.224Z,49.38
2019-05-20T02:40:53.124Z,45.10
2019-05-20T02:43:21.641Z,42.33
2019-05-20T02:45:50.117Z,50.23
2019-05-20T02:48:18.529Z,45.58
2019-05-20T02:50:48.068Z,44.05
2019-05-20T02:53:16.471Z,46.25
2019-05-20T02:55:44.921Z,45.65
2019-05-20T02:58:15.866Z,45.30
2019-05-20T03:00:44.361Z,58.90
2019-05-20T03:03:13.833Z,50.52
2019-05-20T03:05:42.261Z,46.30
2019-05-20T03:08:13.185Z,45.08
2019-05-20T03:10:41.887Z,51.73
2019-05-20T03:13:12.303Z,58.40
2019-05-20T03:15:49.581Z,51.10
2019-05-20T03:18:19.059Z,45.00
2019-05-20T03:20:48.429Z,48.23
2019-05-20T03:23:19.397Z,53.95
2019-05-20T03:25:47.831Z,43.52
2019-05-20T03:28:18.809Z,50.75
2019-05-20T03:30:51.121Z,40.40
2019-05-20T03:33:24.293Z,41.58
2019-05-20T03:36:10.744Z,38.30
2019-05-20T03:38:38.487Z,42.98
2019-05-20T03:41:07.953Z,42.70
2019-05-20T03:43:36.381Z,43.08
2019-05-20T03:46:04.805Z,58.13
2019-05-20T03:48:35.859Z,42.40
2019-05-20T03:51:06.731Z,31.27
2019-05-20T03:53:35.177Z,34.25
2019-05-20T03:56:08.692Z,39.38
2019-05-20T03:58:38.062Z,39.90
2019-05-20T04:01:06.493Z,39.30
2019-05-20T04:03:34.902Z,35.90
2019-05-20T04:06:05.319Z,45.70
2019-05-20T04:08:33.765Z,35.48
2019-05-20T04:11:07.035Z,32.85
2019-05-20T04:13:35.464Z,39.08
2019-05-20T04:16:04.961Z,28.12
2019-05-20T04:18:36.077Z,34.83
2019-05-20T04:21:07.204Z,35.17
2019-05-20T04:23:39.161Z,32.05
2019-05-20T04:26:07.597Z,34.17
2019-05-20T04:28:40.799Z,30.40
2019-05-20T04:31:09.207Z,25.57
2019-05-20T04:33:38.942Z,28.80
2019-05-20T04:36:09.450Z,36.13
2019-05-20T04:38:38.944Z,29.67
2019-05-20T04:41:07.360Z,30.72
2019-05-20T04:43:35.857Z,27.07
2019-05-20T04:46:04.269Z,32.48
2019-05-20T04:48:33.778Z,28.77
2019-05-20T04:51:02.264Z,30.55
2019-05-20T04:53:31.675Z,23.60
2019-05-20T04:56:04.372Z,30.15
2019-05-20T04:58:32.873Z,29.98
2019-05-20T05:01:06.916Z,33.02
2019-05-20T05:03:35.960Z,23.32
2019-05-20T05:06:04.471Z,23.62
2019-05-20T05:08:33.801Z,33.10
2019-05-20T05:11:05.707Z,21.57
2019-05-20T05:13:37.113Z,25.08
2019-05-20T05:16:05.600Z,25.47
2019-05-20T05:18:36.543Z,30.55
2019-05-20T05:21:04.954Z,34.05
2019-05-20T05:23:34.913Z,33.95
2019-05-20T05:26:06.308Z,23.20
2019-05-20T05:28:37.884Z,29.87
2019-05-20T05:31:12.535Z,25.13
2019-05-20T05:33:42.598Z,24.27
2019-05-20T05:36:11.084Z,27.73
2019-05-20T05:38:39.526Z,30.05
2019-05-20T05:41:11.071Z,25.62
2019-05-20T05:43:39.144Z,25.72
2019-05-20T05:46:11.045Z,28.30
2019-05-20T05:48:39.461Z,25.90
2019-05-20T05:51:09.072Z,30.82
2019-05-20T05:53:41.802Z,24.95
2019-05-20T05:56:11.870Z,27.58
2019-05-20T05:58:57.403Z,27.73
2019-05-20T06:01:32.135Z,25.45
2019-05-20T06:04:03.122Z,30.37
2019-05-20T06:06:34.960Z,30.72
2019-05-20T06:09:05.363Z,21.97
2019-05-20T06:11:37.504Z,27.75
2019-05-20T06:14:06.985Z,24.35
2019-05-20T06:16:42.220Z,23.27
2019-05-20T06:19:10.442Z,25.52
2019-05-20T06:21:44.071Z,24.27
2019-05-20T06:24:23.213Z,25.12
2019-05-20T06:26:50.720Z,23.32
2019-05-20T06:29:20.124Z,26.12
2019-05-20T06:31:48.541Z,22.15
2019-05-20T06:34:19.124Z,22.17
2019-05-20T06:36:50.610Z,21.00
2019-05-20T06:39:20.929Z,23.35
2019-05-20T06:41:51.757Z,21.90
2019-05-20T06:44:26.946Z,25.06
2019-05-20T06:46:59.282Z,23.35
2019-05-20T06:49:30.176Z,23.67
2019-05-20T06:51:58.583Z,25.57
2019-05-20T06:54:28.033Z,21.50
2019-05-20T06:56:56.504Z,17.77
2019-05-20T06:59:28.695Z,20.02
2019-05-20T07:02:02.201Z,18.50
2019-05-20T07:04:39.877Z,19.63
2019-05-20T07:07:20.400Z,21.17
2019-05-20T07:09:46.328Z,20.00
2019-05-20T07:12:15.755Z,20.60
2019-05-20T07:14:44.140Z,20.77
2019-05-20T07:17:15.049Z,21.62
2019-05-20T07:19:43.458Z,22.70
2019-05-20T07:22:13.696Z,23.32
2019-05-20T07:24:52.354Z,20.95
2019-05-20T07:27:20.337Z,22.93
2019-05-20T07:29:51.240Z,19.35
2019-05-20T07:32:27.080Z,18.45
2019-05-20T07:34:57.935Z,19.10
2019-05-20T07:37:26.403Z,16.90
2019-05-20T07:40:00.907Z,16.77
2019-05-20T07:42:29.334Z,16.50
2019-05-20T07:44:57.848Z,17.90
2019-05-20T07:47:29.228Z,18.17
2019-05-20T07:50:01.830Z,14.43
2019-05-20T07:52:32.887Z,17.35
2019-05-20T07:55:02.116Z,18.37
2019-05-20T07:57:35.710Z,15.55
2019-05-20T08:00:08.386Z,18.12
2019-05-20T08:02:40.105Z,17.73
2019-05-20T08:05:12.362Z,15.13
2019-05-20T08:07:51.894Z,16.00
2019-05-20T08:10:16.580Z,18.65
2019-05-20T08:12:45.005Z,18.12
2019-05-20T08:15:18.434Z,17.62
2019-05-20T08:17:50.385Z,17.95
2019-05-20T08:20:20.016Z,20.77
2019-05-20T08:22:49.555Z,20.48
2019-05-20T08:25:18.370Z,20.90
2019-05-20T08:27:46.827Z,21.90
2019-05-20T08:30:15.236Z,20.55
2019-05-20T08:32:46.865Z,21.87
2019-05-20T08:35:15.280Z,18.02
2019-05-20T08:37:46.332Z,17.23
2019-05-20T08:40:14.966Z,17.07
2019-05-20T08:42:43.384Z,17.50
2019-05-20T08:45:15.978Z,19.85
2019-05-20T08:47:44.410Z,18.05
2019-05-20T08:50:16.341Z,17.25
2019-05-20T08:52:52.818Z,17.05
2019-05-20T08:55:23.146Z,19.75
2019-05-20T08:57:51.719Z,20.40
2019-05-20T09:00:24.111Z,18.37
2019-05-20T09:02:56.237Z,21.20
2019-05-20T09:05:28.847Z,19.35
2019-05-20T09:08:04.839Z,22.80
2019-05-20T09:10:40.376Z,22.35
2019-05-20T09:13:08.327Z,21.42
2019-05-20T09:15:40.587Z,25.08
2019-05-20T09:18:10.214Z,21.60
2019-05-20T09:20:38.675Z,20.65
2019-05-20T09:23:08.953Z,22.17
2019-05-20T09:25:38.475Z,20.23
2019-05-20T09:28:06.946Z,22.35
2019-05-20T09:30:35.328Z,19.55
2019-05-20T09:33:04.269Z,21.80
2019-05-20T09:35:34.514Z,20.23
2019-05-20T09:38:17.720Z,19.12
2019-05-20T09:40:39.589Z,20.93
2019-05-20T09:43:08.566Z,18.02
2019-05-20T09:45:37.068Z,19.55
2019-05-20T09:48:06.114Z,18.25
2019-05-20T09:50:34.775Z,17.32
2019-05-20T09:53:06.783Z,20.17
2019-05-20T09:55:33.746Z,18.73
2019-05-20T09:58:03.462Z,16.55
2019-05-20T10:00:33.086Z,15.53
2019-05-20T10:03:04.501Z,16.07
2019-05-20T10:05:37.215Z,14.47
2019-05-20T10:08:05.168Z,14.27
2019-05-20T10:10:36.379Z,14.38
2019-05-20T10:13:08.162Z,13.58
2019-05-20T10:15:39.457Z,16.42
2019-05-20T10:18:09.630Z,14.07
2019-05-20T10:20:40.525Z,18.45
2019-05-20T10:23:15.660Z,14.80
2019-05-20T10:25:42.776Z,13.35
2019-05-20T10:28:13.708Z,15.58
2019-05-20T10:30:43.133Z,14.55
2019-05-20T10:33:17.737Z,13.65
2019-05-20T10:35:47.203Z,16.55
2019-05-20T10:38:21.906Z,16.52
2019-05-20T10:40:50.382Z,13.78
2019-05-20T10:43:22.310Z,15.18
2019-05-20T10:45:55.816Z,15.90
2019-05-20T10:48:27.862Z,17.05
2019-05-20T10:51:03.387Z,13.78
2019-05-20T10:53:39.809Z,19.48
2019-05-20T10:56:15.745Z,15.70
2019-05-20T10:59:03.483Z,14.40
2019-05-20T11:01:40.456Z,15.38
2019-05-20T11:04:08.877Z,14.03
2019-05-20T11:06:42.093Z,15.40
2019-05-20T11:09:13.998Z,13.13
2019-05-20T11:11:42.107Z,15.25
2019-05-20T11:14:11.519Z,14.38
2019-05-20T11:16:39.981Z,15.03
2019-05-20T11:19:09.479Z,12.28
2019-05-20T11:21:44.666Z,15.13
2019-05-20T11:24:12.093Z,16.50
2019-05-20T11:26:40.610Z,19.37
2019-05-20T11:29:10.317Z,15.90
2019-05-20T11:31:38.730Z,17.42
2019-05-20T11:34:10.980Z,19.07
2019-05-20T11:36:39.421Z,19.12
2019-05-20T11:39:10.365Z,15.53
2019-05-20T11:41:53.011Z,18.47
2019-05-20T11:44:15.848Z,17.98
2019-05-20T11:46:44.305Z,17.98
2019-05-20T11:49:13.757Z,16.30
2019-05-20T11:51:42.200Z,17.80
2019-05-20T11:54:13.067Z,19.02
2019-05-20T11:56:42.702Z,19.50
2019-05-20T11:59:12.902Z,18.48
2019-05-20T12:01:44.216Z,18.55
2019-05-20T12:04:12.784Z,18.52
2019-05-20T12:06:41.194Z,19.07
2019-05-20T12:09:09.641Z,18.52
2019-05-20T12:11:49.616Z,18.37
2019-05-20T12:14:18.045Z,20.57
2019-05-20T12:16:46.491Z,16.52
2019-05-20T12:19:15.917Z,19.85
2019-05-20T12:21:44.333Z,19.07
2019-05-20T12:24:16.985Z,20.43
2019-05-20T12:27:03.104Z,19.27
2019-05-20T12:29:23.268Z,20.32
2019-05-20T12:31:51.692Z,20.88
2019-05-20T12:34:20.816Z,18.22
2019-05-20T12:36:51.211Z,20.70
2019-05-20T12:39:26.952Z,19.75
2019-05-20T12:41:57.823Z,19.20
2019-05-20T12:44:27.136Z,23.90
2019-05-20T12:46:56.614Z,20.08
2019-05-20T12:49:32.232Z,20.20
2019-05-20T12:52:01.768Z,18.92
2019-05-20T12:54:30.221Z,19.93
2019-05-20T12:56:58.641Z,19.87
2019-05-20T12:59:28.027Z,20.83
2019-05-20T13:01:57.558Z,21.65
2019-05-20T13:04:25.991Z,25.20
2019-05-20T13:06:58.176Z,22.98
2019-05-20T13:09:31.311Z,20.45
2019-05-20T13:12:00.326Z,25.35
2019-05-20T13:14:28.697Z,16.87
2019-05-20T13:17:03.433Z,20.43
2019-05-20T13:19:32.310Z,20.33
2019-05-20T13:22:03.378Z,21.50
2019-05-20T13:24:31.895Z,21.53
2019-05-20T13:27:01.339Z,20.25
2019-05-20T13:29:34.726Z,18.77
2019-05-20T13:32:03.175Z,21.55
2019-05-20T13:34:31.608Z,20.30
2019-05-20T13:37:03.802Z,22.73
2019-05-20T13:42:03.431Z,19.25
2019-05-20T13:44:31.877Z,25.17
2019-05-20T13:47:01.234Z,20.90
2019-05-20T13:49:32.047Z,22.75
2019-05-20T13:52:00.459Z,18.60
2019-05-20T13:54:28.944Z,22.13
2019-05-20T13:57:00.557Z,20.85
2019-05-20T13:59:37.478Z,19.07
2019-05-20T14:02:06.908Z,21.55
2019-05-20T14:04:35.379Z,20.00
2019-05-20T14:07:03.815Z,21.23
2019-05-20T14:09:32.284Z,24.60
2019-05-20T14:12:00.691Z,25.00
2019-05-20T14:14:31.612Z,21.13
2019-05-20T14:17:00.107Z,21.35
2019-05-20T14:19:28.644Z,21.90
2019-05-20T14:21:58.077Z,21.75
2019-05-20T14:24:27.574Z,22.37
2019-05-20T14:26:55.998Z,19.23
2019-05-20T14:29:24.442Z,22.55
2019-05-20T14:31:52.871Z,20.65
2019-05-20T14:34:21.272Z,21.87
2019-05-20T14:36:53.752Z,19.32
2019-05-20T14:39:22.186Z,28.90
2019-05-20T14:41:50.631Z,22.62
2019-05-20T14:44:19.043Z,19.95
2019-05-20T14:46:48.478Z,19.12
2019-05-20T14:49:19.082Z,19.80
2019-05-20T14:51:51.957Z,18.75
2019-05-20T14:54:20.877Z,20.24
2019-05-20T14:56:49.305Z,20.10
2019-05-20T14:59:17.768Z,21.55
2019-05-20T15:01:49.823Z,19.23
2019-05-20T15:04:18.323Z,21.55
2019-05-20T15:06:50.799Z,21.10
2019-05-20T15:09:20.770Z,20.43
2019-05-20T15:11:50.133Z,21.23
2019-05-20T15:14:18.561Z,19.98
2019-05-20T15:16:47.098Z,21.90
2019-05-20T15:19:15.538Z,18.02
2019-05-20T15:21:43.980Z,20.57
2019-05-20T15:24:12.518Z,20.55
2019-05-20T15:26:45.792Z,18.97
2019-05-20T15:29:27.695Z,20.10
2019-05-20T15:31:44.370Z,18.32
2019-05-20T15:34:12.781Z,19.40
2019-05-20T15:36:41.234Z,18.10
2019-05-20T15:39:10.855Z,15.72
2019-05-20T15:41:39.470Z,21.25
2019-05-20T15:44:10.517Z,18.23
2019-05-20T15:46:39.327Z,16.87
2019-05-20T15:49:07.877Z,18.70
2019-05-20T15:51:36.328Z,17.90
2019-05-20T15:54:08.009Z,17.85
2019-05-20T15:56:36.606Z,18.17
2019-05-20T15:59:09.260Z,17.07
2019-05-20T16:01:37.903Z,16.77
2019-05-20T16:04:08.447Z,16.73
2019-05-20T16:06:40.955Z,18.23
2019-05-20T16:09:09.641Z,19.35
2019-05-20T16:11:40.484Z,18.80
2019-05-20T16:14:12.047Z,21.15
2019-05-20T16:16:40.491Z,20.17
2019-05-20T16:19:08.989Z,19.55
2019-05-20T16:21:37.425Z,18.25
2019-05-20T16:24:09.749Z,20.35
2019-05-20T16:26:38.229Z,19.40
2019-05-20T16:29:11.884Z,19.02
2019-05-20T16:31:39.691Z,20.43
2019-05-20T16:34:08.171Z,19.75
2019-05-20T16:36:37.892Z,21.05
2019-05-20T16:39:07.375Z,20.32
2019-05-20T16:41:35.918Z,16.50
2019-05-20T16:44:05.368Z,21.97
2019-05-20T16:46:33.790Z,17.90
2019-05-20T16:49:02.285Z,18.12
2019-05-20T16:51:34.508Z,20.40
2019-05-20T16:56:34.520Z,19.55
2019-05-20T16:59:05.452Z,17.35
2019-05-20T17:01:45.578Z,16.35
2019-05-20T17:04:04.155Z,25.27
2019-05-20T17:06:32.605Z,15.63
2019-05-20T17:09:01.042Z,15.63
2019-05-20T17:11:30.438Z,13.53
2019-05-20T17:14:10.546Z,14.90
2019-05-20T17:16:36.740Z,18.57
2019-05-20T17:19:07.839Z,17.32
2019-05-20T17:21:40.668Z,17.13
2019-05-20T17:24:11.639Z,15.45
2019-05-20T17:26:42.736Z,17.80
2019-05-20T17:29:11.152Z,17.75
2019-05-20T17:31:43.290Z,16.60
2019-05-20T17:34:11.731Z,16.50
2019-05-20T17:36:40.151Z,19.20
2019-05-20T17:39:11.281Z,19.65
2019-05-20T17:41:39.772Z,16.02
2019-05-20T17:44:08.408Z,16.93
2019-05-20T17:46:39.823Z,16.37
2019-05-20T17:49:09.723Z,16.00
2019-05-20T17:51:38.160Z,18.20
2019-05-20T17:54:06.993Z,16.40
2019-05-20T17:56:35.865Z,21.48
2019-05-20T17:59:04.752Z,18.10
2019-05-20T18:01:35.848Z,20.02
2019-05-20T18:04:13.318Z,21.73
2019-05-20T18:06:40.811Z,19.37
2019-05-20T18:09:09.821Z,25.35
2019-05-20T18:11:40.779Z,19.52
2019-05-20T18:14:09.353Z,21.40
2019-05-20T18:16:38.348Z,16.93
2019-05-20T18:19:06.829Z,16.73
2019-05-20T18:21:35.622Z,23.97
2019-05-20T18:24:04.285Z,75.55
2019-05-20T18:26:34.006Z,65.47
2019-05-20T18:29:06.326Z,69.53
2019-05-20T18:31:35.009Z,93.75
2019-05-20T18:34:03.797Z,65.45
2019-05-20T18:36:34.288Z,34.95
2019-05-20T18:39:02.701Z,32.58
2019-05-20T18:41:31.314Z,19.67
2019-05-20T18:43:59.901Z,19.20
2019-05-20T18:46:33.560Z,30.35
2019-05-20T18:49:02.116Z,22.60
2019-05-20T18:51:30.585Z,20.75
2019-05-20T18:53:59.135Z,16.32
2019-05-20T18:56:30.427Z,25.68
2019-05-20T18:59:02.899Z,25.02
2019-05-20T19:01:45.790Z,17.98
2019-05-20T19:04:01.649Z,20.52
2019-05-20T19:06:34.104Z,20.93
2019-05-20T19:09:02.885Z,20.77
2019-05-20T19:11:31.670Z,25.27
2019-05-20T19:14:00.265Z,31.50
2019-05-20T19:16:28.887Z,20.57
2019-05-20T19:19:02.234Z,22.60
2019-05-20T19:21:30.858Z,23.00
2019-05-20T19:23:59.357Z,30.10
2019-05-20T19:26:29.093Z,24.67
2019-05-20T19:28:57.550Z,28.05
2019-05-20T19:31:25.980Z,26.85
2019-05-20T19:33:54.407Z,26.30
2019-05-20T19:36:25.342Z,23.73
2019-05-20T19:38:53.816Z,25.10
2019-05-20T19:41:22.401Z,23.62
2019-05-20T19:43:55.097Z,24.47
2019-05-20T19:46:23.566Z,23.30
2019-05-20T19:48:52.146Z,22.82
2019-05-20T19:51:21.626Z,26.60
2019-05-20T19:53:56.681Z,24.00
2019-05-20T19:56:25.127Z,23.97
2019-05-20T19:58:53.548Z,24.87
2019-05-20T20:01:22.005Z,23.00
2019-05-20T20:04:01.195Z,33.35
2019-05-20T20:06:33.688Z,23.40
2019-05-20T20:09:02.129Z,45.85
2019-05-20T20:11:33.143Z,37.23
2019-05-20T20:14:04.017Z,29.55
2019-05-20T20:16:32.479Z,24.35
2019-05-20T20:19:04.956Z,29.92
2019-05-20T20:21:36.141Z,27.62
2019-05-20T20:24:04.641Z,33.33
2019-05-20T20:26:33.099Z,28.63
2019-05-20T20:29:11.323Z,31.97
2019-05-20T20:31:41.148Z,31.20
2019-05-20T20:34:14.978Z,30.82
2019-05-20T20:36:43.446Z,29.10
2019-05-20T20:39:12.936Z,33.92
2019-05-20T20:41:43.877Z,31.10
2019-05-20T20:44:12.464Z,34.00
2019-05-20T20:46:44.791Z,33.38
2019-05-20T20:51:42.600Z,28.60
2019-05-20T20:54:11.082Z,26.80
2019-05-20T20:56:43.089Z,26.33
2019-05-20T20:59:11.680Z,25.35
2019-05-20T21:01:40.202Z,24.63
2019-05-20T21:04:08.626Z,22.02
2019-05-20T21:06:37.832Z,24.65
2019-05-20T21:09:07.012Z,22.80
2019-05-20T21:11:35.412Z,19.17
2019-05-20T21:14:09.565Z,19.27
2019-05-20T21:16:37.972Z,19.90
2019-05-20T21:19:12.006Z,18.27
2019-05-20T21:21:44.183Z,19.42
2019-05-20T21:24:12.606Z,18.02
2019-05-20T21:26:41.102Z,14.95
2019-05-20T21:29:09.580Z,16.32
2019-05-20T21:31:38.005Z,15.93
2019-05-20T21:34:06.411Z,15.45
2019-05-20T21:36:46.901Z,15.60
2019-05-20T21:39:06.118Z,16.60
2019-05-20T21:41:34.534Z,17.70
2019-05-20T21:44:02.976Z,14.53
2019-05-20T21:46:31.413Z,15.05
2019-05-20T21:49:02.215Z,16.12
2019-05-20T21:51:30.685Z,15.30
2019-05-20T21:54:01.641Z,14.87
2019-05-20T21:56:30.083Z,16.77
2019-05-20T21:59:02.768Z,14.98
2019-05-20T22:01:34.187Z,16.82
2019-05-20T22:04:02.715Z,14.53
2019-05-20T22:06:31.181Z,13.97
2019-05-20T22:08:59.650Z,14.40
2019-05-20T22:11:30.904Z,17.07
2019-05-20T22:13:59.467Z,17.98
2019-05-20T22:16:30.456Z,16.35
2019-05-20T22:19:01.336Z,15.70
2019-05-20T22:21:31.457Z,14.85
2019-05-20T22:24:03.951Z,17.27
2019-05-20T22:26:33.375Z,15.43
2019-05-20T22:29:05.621Z,14.03
2019-05-20T22:31:38.072Z,12.18
2019-05-20T22:34:06.478Z,11.40
2019-05-20T22:36:34.921Z,15.40
2019-05-20T22:39:04.360Z,13.28
2019-05-20T22:41:33.883Z,12.37
2019-05-20T22:44:07.646Z,13.62
2019-05-20T22:46:38.714Z,13.18
2019-05-20T22:49:09.662Z,11.43
2019-05-20T22:51:39.059Z,11.33
2019-05-20T22:54:09.945Z,12.73
2019-05-20T22:56:38.358Z,11.60
2019-05-20T22:59:10.745Z,11.83
2019-05-20T23:01:41.724Z,10.83
2019-05-20T23:04:11.928Z,9.63
2019-05-20T23:06:40.402Z,10.65
2019-05-20T23:09:10.793Z,9.60
2019-05-20T23:11:38.989Z,12.10
2019-05-20T23:14:07.433Z,11.78
2019-05-20T23:16:35.929Z,9.68
2019-05-20T23:19:06.729Z,9.73
2019-05-20T23:21:34.507Z,11.15
2019-05-20T23:24:02.929Z,9.58
2019-05-20T23:26:35.412Z,9.70
2019-05-20T23:29:04.007Z,9.45
2019-05-20T23:31:32.417Z,11.38
2019-05-20T23:34:12.155Z,13.00
2019-05-20T23:36:32.011Z,14.10
2019-05-20T23:39:00.466Z,12.65
2019-05-20T23:41:32.928Z,13.95
2019-05-20T23:46:32.035Z,16.10
2019-05-20T23:49:00.445Z,11.08
2019-05-20T23:51:36.198Z,14.45
2019-05-20T23:54:04.658Z,11.68
2019-05-20T23:56:33.059Z,13.28
2019-05-20T23:59:02.743Z,14.28
